This is the latest recevied weather packets stored in our database for station/object K1ABC. If no packets are shown the sender has not sent any weather packets the latest 1 day(s).
| Time | Temp. | Humidity | Pressure | Rain* | Wind** | Luminosity | Snow |
|---|---|---|---|---|---|---|---|
| 1778013938 | 28.33° C | 36% | 1003.7 hPa | 0 mm | 2.68 m/s, 215° | - | - |
| 1778013734 | 28.33° C | 35% | 1003.6 hPa | 0 mm | 3.13 m/s, 225° | - | - |
| 1778013157 | 28.33° C | 35% | 1003.8 hPa | 0 mm | 3.13 m/s, 190° | - | - |
| 1778012833 | 28.33° C | 36% | 1003.8 hPa | 0 mm | 3.13 m/s, 252° | - | - |
| 1778011893 | 28.33° C | 35% | 1003.9 hPa | 0 mm | 3.13 m/s, 221° | - | - |
| 1778010943 | 28.33° C | 37% | 1003.9 hPa | 0 mm | 4.02 m/s, 159° | - | - |
| 1778010001 | 28.89° C | 35% | 1004 hPa | 0 mm | 3.13 m/s, 214° | - | - |
| 1778009299 | 28.33° C | 35% | 1004.3 hPa | 0 mm | 3.13 m/s, 234° | - | - |
| 1778009099 | 28.33° C | 35% | 1004.3 hPa | 0 mm | 3.13 m/s, 234° | - | - |
| 1778008896 | 28.89° C | 35% | 1004.3 hPa | 0 mm | 3.13 m/s, 173° | - | - |
| 1778008443 | 28.33° C | 35% | 1004.5 hPa | 0 mm | 3.13 m/s, 266° | - | - |
| 1778007994 | 28.33° C | 35% | 1004.6 hPa | 0 mm | 3.13 m/s, 234° | - | - |
| 1778007544 | 28.89° C | 35% | 1004.7 hPa | 0 mm | 2.24 m/s, 238° | - | - |
| 1778007348 | 28.89° C | 35% | 1004.9 hPa | 0 mm | 2.24 m/s, 183° | - | - |
| 1778004919 | 28.89° C | 35% | 1005.4 hPa | 0 mm | 3.58 m/s, 226° | - | - |
| 1778003719 | 28.89° C | 35% | 1005.6 hPa | 0 mm | 2.24 m/s, 241° | - | - |
| 1778003514 | 28.89° C | 36% | 1005.6 hPa | 0 mm | 2.68 m/s, 246° | - | - |
| 1778002069 | 28.33° C | 37% | 1006 hPa | 0 mm | 2.68 m/s, 200° | - | - |
| 1778001747 | 27.78° C | 37% | 1006.2 hPa | 0 mm | 2.24 m/s, 192° | - | - |
| 1778001427 | 27.78° C | 37% | 1006.3 hPa | 0 mm | 2.24 m/s, 162° | - | - |
| 1778000731 | 27.78° C | 37% | 1006.6 hPa | 0 mm | 1.79 m/s, 240° | - | - |
| 1777997665 | 26.11° C | 42% | 1007.6 hPa | 0 mm | 1.79 m/s, 203° | - | - |
| 1777997101 | 25.56° C | 42% | 1007.9 hPa | 0 mm | 1.34 m/s, 221° | - | - |
| 1777996645 | 25.56° C | 44% | 1007.9 hPa | 0 mm | 1.79 m/s, 247° | - | - |
| 1777996314 | 25° C | 43% | 1008 hPa | 0 mm | 2.24 m/s, 238° | - | - |
* Rain latest hour (hover to see other rain measurements)
** Current wind speed in m/s (hover to see current wind gust speed)